createdAt,value
2018-09-24T00:01:52.921Z,71.56
2018-09-24T00:04:22.481Z,71.87
2018-09-24T00:06:52.084Z,72.00
2018-09-24T00:09:21.350Z,72.62
2018-09-24T00:11:50.717Z,71.46
2018-09-24T00:14:20.295Z,71.74
2018-09-24T00:16:49.615Z,71.76
2018-09-24T00:19:18.875Z,71.18
2018-09-24T00:21:48.391Z,71.60
2018-09-24T00:24:17.727Z,71.95
2018-09-24T00:26:47.192Z,70.88
2018-09-24T00:29:16.395Z,70.80
2018-09-24T00:31:45.898Z,71.33
2018-09-24T00:34:15.263Z,71.13
2018-09-24T00:36:44.601Z,71.21
2018-09-24T00:39:14.001Z,71.02
2018-09-24T00:41:43.402Z,70.80
2018-09-24T00:44:13.931Z,70.95
2018-09-24T00:46:43.231Z,70.54
2018-09-24T00:49:12.693Z,70.30
2018-09-24T00:51:42.237Z,70.74
2018-09-24T00:54:11.433Z,70.63
2018-09-24T00:56:40.947Z,70.90
2018-09-24T00:59:10.240Z,70.01
2018-09-24T01:01:39.621Z,70.13
2018-09-24T01:04:09.143Z,70.48
2018-09-24T01:06:38.431Z,70.39
2018-09-24T01:09:10.575Z,70.77
2018-09-24T01:11:40.115Z,70.05
2018-09-24T01:14:09.517Z,70.84
2018-09-24T01:16:39.323Z,70.28
2018-09-24T01:19:08.700Z,69.69
2018-09-24T01:21:38.135Z,69.71
2018-09-24T01:24:07.943Z,69.68
2018-09-24T01:26:37.303Z,70.17
2018-09-24T01:29:06.848Z,69.95
2018-09-24T01:31:36.353Z,69.55
2018-09-24T01:34:05.861Z,71.23
2018-09-24T01:36:35.258Z,70.01
2018-09-24T01:39:05.644Z,69.67
2018-09-24T01:41:35.192Z,70.28
2018-09-24T01:44:04.592Z,70.72
2018-09-24T01:46:35.118Z,70.89
2018-09-24T01:49:09.520Z,70.54
2018-09-24T01:51:39.657Z,70.72
2018-09-24T01:54:09.063Z,70.99
2018-09-24T01:56:38.666Z,70.79
2018-09-24T01:59:10.421Z,71.36
2018-09-24T02:01:45.230Z,70.36
2018-09-24T02:04:15.323Z,70.82
2018-09-24T02:06:44.873Z,71.15
2018-09-24T02:09:14.158Z,71.79
2018-09-24T02:11:44.083Z,71.55
2018-09-24T02:14:13.483Z,71.52
2018-09-24T02:16:43.097Z,71.13
2018-09-24T02:19:13.638Z,70.49
2018-09-24T02:21:43.026Z,71.19
2018-09-24T02:24:12.600Z,71.40
2018-09-24T02:26:42.101Z,71.30
2018-09-24T02:29:12.563Z,70.92
2018-09-24T02:31:41.831Z,71.81
2018-09-24T02:34:12.233Z,71.38
2018-09-24T02:36:41.895Z,70.61
2018-09-24T02:39:12.241Z,70.42
2018-09-24T02:41:41.999Z,70.74
2018-09-24T02:44:11.588Z,70.51
2018-09-24T02:46:43.595Z,70.05
2018-09-24T02:49:12.943Z,70.67
2018-09-24T02:51:42.504Z,70.77
2018-09-24T02:54:12.111Z,70.66
2018-09-24T02:56:45.711Z,71.17
2018-09-24T02:59:15.087Z,72.13
2018-09-24T03:01:44.924Z,71.49
2018-09-24T03:04:14.435Z,70.80
2018-09-24T03:06:43.828Z,71.51
2018-09-24T03:09:15.489Z,70.78
2018-09-24T03:11:44.983Z,71.16
2018-09-24T03:14:14.512Z,70.89
2018-09-24T03:16:43.996Z,70.16
2018-09-24T03:19:13.291Z,70.97
2018-09-24T03:21:42.594Z,70.59
2018-09-24T03:24:11.890Z,70.73
2018-09-24T03:26:43.070Z,70.81
2018-09-24T03:29:22.420Z,70.97
2018-09-24T03:31:52.389Z,71.52
2018-09-24T03:34:21.691Z,70.85
2018-09-24T03:36:51.398Z,71.06
2018-09-24T03:39:20.719Z,71.19
2018-09-24T03:41:50.183Z,71.92
2018-09-24T03:44:19.534Z,71.97
2018-09-24T03:46:49.002Z,71.74
2018-09-24T03:49:18.519Z,70.98
2018-09-24T03:51:47.806Z,71.68
2018-09-24T03:54:17.310Z,71.64
2018-09-24T03:56:46.816Z,72.07
2018-09-24T03:59:16.098Z,71.97
2018-09-24T04:01:45.458Z,71.81
2018-09-24T04:04:20.141Z,71.71
2018-09-24T04:06:54.866Z,72.49
2018-09-24T04:09:29.602Z,72.27
2018-09-24T04:12:04.353Z,73.08
2018-09-24T04:14:38.994Z,72.54
2018-09-24T04:17:13.878Z,73.15
2018-09-24T04:19:48.401Z,73.75
2018-09-24T04:22:23.131Z,73.66
2018-09-24T04:24:57.956Z,74.51
2018-09-24T04:27:32.519Z,74.62
2018-09-24T04:30:07.095Z,74.57
2018-09-24T04:32:41.724Z,74.44
2018-09-24T04:35:16.143Z,74.70
2018-09-24T04:37:50.871Z,74.30
2018-09-24T04:40:25.600Z,73.95
2018-09-24T04:43:00.260Z,75.00
2018-09-24T04:45:35.262Z,73.79
2018-09-24T04:48:11.031Z,74.29
2018-09-24T04:50:45.629Z,74.75
2018-09-24T04:53:20.560Z,74.28
2018-09-24T04:55:55.321Z,74.29
2018-09-24T04:58:30.011Z,73.63
2018-09-24T05:01:04.479Z,73.92
2018-09-24T05:03:39.264Z,73.67
2018-09-24T05:06:13.652Z,73.89
2018-09-24T05:08:48.203Z,73.67
2018-09-24T05:11:23.136Z,73.95
2018-09-24T05:13:57.861Z,74.51
2018-09-24T05:16:32.428Z,74.66
2018-09-24T05:19:07.322Z,74.46
2018-09-24T05:21:41.695Z,74.82
2018-09-24T05:24:16.562Z,74.29
2018-09-24T05:26:51.392Z,73.19
2018-09-24T05:32:00.336Z,74.71
2018-09-24T05:34:35.349Z,74.28
2018-09-24T05:37:09.667Z,73.65
2018-09-24T05:39:44.439Z,73.82
2018-09-24T05:42:20.057Z,74.20
2018-09-24T05:44:54.778Z,73.06
2018-09-24T05:47:29.447Z,72.70
2018-09-24T05:50:03.931Z,72.82
2018-09-24T05:52:38.797Z,72.84
2018-09-24T05:55:13.926Z,73.25
2018-09-24T05:57:48.438Z,72.44
2018-09-24T06:00:23.155Z,72.83
2018-09-24T06:02:57.762Z,72.87
2018-09-24T06:05:32.602Z,70.75
2018-09-24T06:08:07.024Z,71.87
2018-09-24T06:10:41.751Z,71.59
2018-09-24T06:13:16.310Z,73.54
2018-09-24T06:15:50.890Z,72.30
2018-09-24T06:18:25.822Z,72.28
2018-09-24T06:21:00.326Z,72.82
2018-09-24T06:23:34.890Z,72.29
2018-09-24T06:26:09.751Z,72.21
2018-09-24T06:28:44.317Z,71.66
2018-09-24T06:31:19.044Z,71.75
2018-09-24T06:33:53.495Z,72.75
2018-09-24T06:36:27.907Z,72.58
2018-09-24T06:39:02.504Z,72.53
2018-09-24T06:41:38.462Z,72.75
2018-09-24T06:44:13.293Z,72.98
2018-09-24T06:46:47.926Z,72.75
2018-09-24T06:49:22.642Z,71.95
2018-09-24T06:51:57.882Z,70.85
2018-09-24T06:54:32.470Z,71.23
2018-09-24T06:57:07.269Z,71.59
2018-09-24T06:59:41.927Z,70.77
2018-09-24T07:02:16.547Z,70.97
2018-09-24T07:04:51.115Z,70.52
2018-09-24T07:07:25.934Z,70.19
2018-09-24T07:10:00.565Z,70.32
2018-09-24T07:12:35.183Z,69.25
2018-09-24T07:15:09.843Z,69.61
2018-09-24T07:17:45.559Z,69.65
2018-09-24T07:20:20.386Z,69.11
2018-09-24T07:22:55.319Z,68.37
2018-09-24T07:25:30.203Z,69.04
2018-09-24T07:28:04.924Z,68.97
2018-09-24T07:30:39.619Z,69.67
2018-09-24T07:33:14.403Z,68.92
2018-09-24T07:35:49.055Z,67.88
2018-09-24T07:38:23.877Z,68.02
2018-09-24T07:40:58.604Z,67.92
2018-09-24T07:43:33.697Z,68.06
2018-09-24T07:46:08.363Z,67.76
2018-09-24T07:48:42.941Z,65.57
2018-09-24T07:51:17.720Z,65.71
2018-09-24T07:53:52.159Z,65.35
2018-09-24T07:56:27.070Z,65.37
2018-09-24T07:59:01.900Z,66.11
2018-09-24T08:01:36.569Z,65.79
2018-09-24T08:04:11.352Z,65.16
2018-09-24T08:06:45.916Z,64.72
2018-09-24T08:09:20.807Z,63.95
2018-09-24T08:11:55.444Z,63.56
2018-09-24T08:14:30.157Z,61.53
2018-09-24T08:17:05.805Z,61.38
2018-09-24T08:19:40.400Z,61.99
2018-09-24T08:22:14.956Z,62.03
2018-09-24T08:24:49.471Z,60.80
2018-09-24T08:27:24.030Z,60.92
2018-09-24T08:29:58.720Z,60.65
2018-09-24T08:32:33.447Z,60.58
2018-09-24T08:35:08.071Z,59.62
2018-09-24T08:37:42.900Z,59.36
2018-09-24T08:40:17.503Z,57.46
2018-09-24T08:42:51.951Z,56.25
2018-09-24T08:45:26.529Z,56.77
2018-09-24T08:48:01.398Z,57.51
2018-09-24T08:50:35.919Z,56.45
2018-09-24T08:53:10.550Z,57.41
2018-09-24T08:55:45.679Z,57.00
2018-09-24T08:58:20.406Z,57.76
2018-09-24T09:00:54.971Z,54.97
2018-09-24T09:03:29.859Z,53.88
2018-09-24T09:06:04.376Z,55.18
2018-09-24T09:08:39.010Z,55.12
2018-09-24T09:11:13.586Z,55.66
2018-09-24T09:13:48.460Z,57.43
2018-09-24T09:16:23.039Z,53.72
2018-09-24T09:18:57.811Z,53.97
2018-09-24T09:21:32.228Z,53.38
2018-09-24T09:24:06.639Z,54.59
2018-09-24T09:26:41.091Z,56.85
2018-09-24T09:29:15.776Z,57.04
2018-09-24T09:31:50.415Z,56.76
2018-09-24T09:34:24.978Z,57.38
2018-09-24T09:36:59.410Z,56.47
2018-09-24T09:39:34.290Z,54.41
2018-09-24T09:42:09.044Z,53.17
2018-09-24T09:44:43.660Z,53.71
2018-09-24T09:47:18.161Z,53.20
2018-09-24T09:49:52.686Z,52.73
2018-09-24T09:52:27.514Z,52.58
2018-09-24T09:55:02.237Z,52.60
2018-09-24T09:57:37.069Z,50.83
2018-09-24T10:00:12.152Z,50.35
2018-09-24T10:02:46.618Z,52.20
2018-09-24T10:05:21.661Z,50.64
2018-09-24T10:07:56.489Z,51.47
2018-09-24T10:10:31.318Z,51.66
2018-09-24T10:13:06.150Z,50.94
2018-09-24T10:15:40.728Z,51.69
2018-09-24T10:18:15.138Z,50.25
2018-09-24T10:20:49.510Z,51.51
2018-09-24T10:23:24.233Z,50.38
2018-09-24T10:25:58.856Z,51.09
2018-09-24T10:28:33.583Z,51.08
2018-09-24T10:31:08.209Z,48.83
2018-09-24T10:33:42.741Z,48.69
2018-09-24T10:36:17.355Z,48.08
2018-09-24T10:38:52.083Z,48.86
2018-09-24T10:41:26.706Z,49.99
2018-09-24T10:44:01.433Z,50.65
2018-09-24T10:46:35.938Z,49.95
2018-09-24T10:49:10.570Z,50.19
2018-09-24T10:51:45.262Z,49.18
2018-09-24T10:54:19.924Z,49.11
2018-09-24T10:56:54.860Z,50.71
2018-09-24T10:59:29.481Z,49.64
2018-09-24T11:02:04.124Z,50.37
2018-09-24T11:04:38.737Z,50.74
2018-09-24T11:07:13.564Z,49.68
2018-09-24T11:09:48.119Z,48.54
2018-09-24T11:12:22.524Z,48.67
2018-09-24T11:14:57.176Z,48.48
2018-09-24T11:17:31.801Z,53.27
2018-09-24T11:20:06.355Z,56.26
2018-09-24T11:22:40.732Z,57.49
2018-09-24T11:25:15.393Z,60.51
2018-09-24T11:27:49.936Z,59.99
2018-09-24T11:30:24.668Z,57.55
2018-09-24T11:32:59.495Z,57.62
2018-09-24T11:35:34.428Z,53.65
2018-09-24T11:38:09.363Z,54.13
2018-09-24T11:40:44.020Z,50.61
2018-09-24T11:43:18.811Z,53.53
2018-09-24T11:45:53.588Z,53.04
2018-09-24T11:48:28.161Z,52.48
2018-09-24T11:51:02.993Z,52.98
2018-09-24T11:53:37.599Z,52.17
2018-09-24T11:56:12.356Z,50.38
2018-09-24T11:58:47.173Z,50.71
2018-09-24T12:01:21.794Z,52.49
2018-09-24T12:03:56.372Z,51.32
2018-09-24T12:06:31.237Z,52.71
2018-09-24T12:09:05.769Z,52.89
2018-09-24T12:11:40.497Z,54.60
2018-09-24T12:14:15.087Z,50.63
2018-09-24T12:16:49.849Z,52.15
2018-09-24T12:19:24.369Z,49.67
2018-09-24T12:21:59.096Z,49.68
2018-09-24T12:24:33.824Z,48.96
2018-09-24T12:27:08.444Z,48.53
2018-09-24T12:29:43.276Z,48.15
2018-09-24T12:32:17.902Z,49.50
2018-09-24T12:34:52.522Z,47.44
2018-09-24T12:37:27.253Z,48.38
2018-09-24T12:40:01.696Z,48.60
2018-09-24T12:42:36.098Z,50.56
2018-09-24T12:45:10.671Z,49.49
2018-09-24T12:47:45.438Z,48.89
2018-09-24T12:50:20.187Z,48.57
2018-09-24T12:52:54.896Z,47.59
2018-09-24T12:55:29.827Z,48.97
2018-09-24T12:58:04.254Z,50.03
2018-09-24T13:00:38.702Z,48.58
2018-09-24T13:03:13.454Z,47.20
2018-09-24T13:05:48.324Z,49.13
2018-09-24T13:08:23.171Z,48.66
2018-09-24T13:10:57.927Z,49.42
2018-09-24T13:13:32.505Z,48.67
2018-09-24T13:16:07.328Z,47.16
2018-09-24T13:18:42.970Z,45.81
2018-09-24T13:21:17.804Z,46.30
2018-09-24T13:23:52.481Z,47.13
2018-09-24T13:26:27.468Z,47.13
2018-09-24T13:29:01.881Z,44.93
2018-09-24T13:31:36.588Z,45.39
2018-09-24T13:34:11.231Z,45.36
2018-09-24T13:36:45.969Z,45.46
2018-09-24T13:39:20.898Z,47.16
2018-09-24T13:41:55.728Z,45.52
2018-09-24T13:44:30.335Z,46.26
2018-09-24T13:47:05.179Z,46.47
2018-09-24T13:49:39.806Z,47.38
2018-09-24T13:52:14.476Z,47.30
2018-09-24T13:54:49.358Z,47.48
2018-09-24T13:57:23.876Z,48.00
2018-09-24T13:59:58.508Z,47.52
2018-09-24T14:02:33.538Z,49.46
2018-09-24T14:05:08.134Z,48.78
2018-09-24T14:07:42.806Z,48.40
2018-09-24T14:10:17.371Z,48.86
2018-09-24T14:12:52.139Z,48.22
2018-09-24T14:15:26.864Z,47.03
2018-09-24T14:18:01.796Z,48.08
2018-09-24T14:20:36.522Z,46.78
2018-09-24T14:23:11.250Z,47.05
2018-09-24T14:25:46.002Z,47.21
2018-09-24T14:28:21.829Z,48.94
2018-09-24T14:30:56.662Z,49.42
2018-09-24T14:33:31.692Z,47.81
2018-09-24T14:36:06.421Z,48.67
2018-09-24T14:38:41.146Z,50.17
2018-09-24T14:41:15.898Z,49.13
2018-09-24T14:43:50.804Z,50.11
2018-09-24T14:46:25.531Z,50.60
2018-09-24T14:49:00.566Z,52.71
2018-09-24T14:51:34.945Z,52.39
2018-09-24T14:54:09.600Z,52.57
2018-09-24T14:56:44.095Z,51.59
2018-09-24T14:59:18.653Z,49.24
2018-09-24T15:01:53.176Z,47.87
2018-09-24T15:04:28.002Z,48.26
2018-09-24T15:07:02.447Z,48.67
2018-09-24T15:09:37.052Z,50.11
2018-09-24T15:12:11.670Z,50.21
2018-09-24T15:14:46.293Z,51.66
2018-09-24T15:17:20.923Z,52.58
2018-09-24T15:19:55.542Z,53.72
2018-09-24T15:22:30.010Z,54.90
2018-09-24T15:25:05.165Z,56.51
2018-09-24T15:27:40.133Z,56.53
2018-09-24T15:30:15.059Z,57.73
2018-09-24T15:32:49.505Z,56.56
2018-09-24T15:35:24.249Z,57.46
2018-09-24T15:37:59.144Z,57.38
2018-09-24T15:40:33.701Z,58.21
2018-09-24T15:43:08.698Z,58.28
2018-09-24T15:45:43.066Z,58.07
2018-09-24T15:48:17.680Z,59.07
2018-09-24T15:50:52.570Z,58.88
2018-09-24T15:53:27.058Z,58.09
2018-09-24T15:56:01.719Z,59.15
2018-09-24T15:58:36.212Z,58.29
2018-09-24T16:01:10.904Z,58.54
2018-09-24T16:03:45.499Z,58.23
2018-09-24T16:06:20.063Z,58.71
2018-09-24T16:08:54.948Z,62.76
2018-09-24T16:11:29.462Z,64.10
2018-09-24T16:14:03.984Z,67.61
2018-09-24T16:16:38.506Z,68.97
2018-09-24T16:19:13.112Z,70.78
2018-09-24T16:21:47.739Z,72.77
2018-09-24T16:24:22.584Z,69.84
2018-09-24T16:26:57.006Z,68.53
2018-09-24T16:29:31.327Z,67.87
2018-09-24T16:32:06.050Z,66.81
2018-09-24T16:34:42.682Z,65.77
2018-09-24T16:37:17.394Z,66.05
2018-09-24T16:39:52.378Z,66.62
2018-09-24T16:42:28.136Z,67.78
2018-09-24T16:45:02.754Z,67.07
2018-09-24T16:47:37.377Z,67.66
2018-09-24T16:50:11.914Z,67.44
2018-09-24T16:52:46.625Z,66.58
2018-09-24T16:55:21.226Z,66.18
2018-09-24T16:57:56.234Z,66.16
2018-09-24T17:00:31.115Z,65.10
2018-09-24T17:03:05.822Z,65.74
2018-09-24T17:05:40.567Z,65.00
2018-09-24T17:08:15.395Z,64.71
2018-09-24T17:10:51.171Z,64.77
2018-09-24T17:13:25.797Z,63.92
2018-09-24T17:16:00.386Z,63.08
2018-09-24T17:18:35.429Z,63.61
2018-09-24T17:21:10.261Z,63.68
2018-09-24T17:23:44.984Z,63.57
2018-09-24T17:26:19.319Z,64.35
2018-09-24T17:28:54.029Z,66.03
2018-09-24T17:31:28.869Z,65.00
2018-09-24T17:34:03.633Z,64.81
2018-09-24T17:36:38.207Z,65.34
2018-09-24T17:39:14.141Z,64.97
2018-09-24T17:41:49.017Z,64.78
2018-09-24T17:44:24.844Z,65.24
2018-09-24T17:46:59.776Z,65.00
2018-09-24T17:49:34.606Z,65.81
2018-09-24T17:52:09.459Z,66.98
2018-09-24T17:54:44.180Z,67.12
2018-09-24T17:57:18.887Z,66.78
2018-09-24T17:59:56.032Z,66.39
2018-09-24T18:02:31.607Z,66.11
2018-09-24T18:05:06.344Z,65.52
2018-09-24T18:07:41.335Z,65.55
2018-09-24T18:10:16.207Z,65.26
2018-09-24T18:12:51.036Z,65.67
2018-09-24T18:15:25.774Z,64.99
2018-09-24T18:18:00.677Z,65.12
2018-09-24T18:20:35.523Z,64.42
2018-09-24T18:23:11.069Z,64.91
2018-09-24T18:25:46.016Z,65.71
2018-09-24T18:28:20.933Z,65.10
2018-09-24T18:30:55.659Z,65.25
2018-09-24T18:33:30.423Z,65.91
2018-09-24T18:36:05.938Z,65.80
2018-09-24T18:38:40.790Z,65.51
2018-09-24T18:41:15.762Z,65.49
2018-09-24T18:43:50.586Z,66.00
2018-09-24T18:46:25.559Z,66.18
2018-09-24T18:49:00.355Z,65.99
2018-09-24T18:51:35.422Z,66.22
2018-09-24T18:54:10.349Z,67.05
2018-09-24T18:56:45.178Z,66.29
2018-09-24T18:59:20.010Z,66.58
2018-09-24T19:01:54.845Z,65.79
2018-09-24T19:04:29.664Z,65.81
2018-09-24T19:07:04.387Z,66.78
2018-09-24T19:09:38.983Z,66.91
2018-09-24T19:12:13.769Z,67.97
2018-09-24T19:14:48.572Z,66.86
2018-09-24T19:17:23.248Z,67.10
2018-09-24T19:19:57.862Z,66.69
2018-09-24T19:22:32.749Z,66.81
2018-09-24T19:25:08.302Z,66.06
2018-09-24T19:27:43.137Z,66.21
2018-09-24T19:30:17.615Z,66.09
2018-09-24T19:32:52.176Z,66.03
2018-09-24T19:35:26.998Z,65.74
2018-09-24T19:38:01.951Z,65.13
2018-09-24T19:40:37.066Z,65.30
2018-09-24T19:43:11.711Z,65.45
2018-09-24T19:45:46.520Z,64.93
2018-09-24T19:48:21.068Z,64.82
2018-09-24T19:50:55.871Z,65.86
2018-09-24T19:53:30.437Z,65.57
2018-09-24T19:56:05.011Z,65.67
2018-09-24T19:58:39.743Z,65.57
2018-09-24T20:01:14.484Z,65.63
2018-09-24T20:03:49.298Z,65.41
2018-09-24T20:06:26.520Z,66.49
2018-09-24T20:09:01.503Z,67.07
2018-09-24T20:11:36.655Z,67.00
2018-09-24T20:14:12.137Z,66.24
2018-09-24T20:16:47.341Z,66.90
2018-09-24T20:19:22.167Z,66.61
2018-09-24T20:21:56.792Z,67.00
2018-09-24T20:24:31.727Z,67.29
2018-09-24T20:27:07.480Z,66.99
2018-09-24T20:29:43.222Z,68.12
2018-09-24T20:32:18.201Z,67.86
2018-09-24T20:34:53.092Z,68.52
2018-09-24T20:37:27.915Z,68.22
2018-09-24T20:40:02.849Z,68.66
2018-09-24T20:42:37.879Z,69.75
2018-09-24T20:45:13.104Z,69.13
2018-09-24T20:47:48.971Z,68.30
2018-09-24T20:50:23.594Z,69.12
2018-09-24T20:52:58.378Z,69.25
2018-09-24T20:55:33.015Z,68.21
2018-09-24T20:58:07.878Z,68.05
2018-09-24T21:00:45.330Z,67.90
2018-09-24T21:03:20.238Z,68.86
2018-09-24T21:05:55.641Z,68.62
2018-09-24T21:08:30.571Z,69.16
2018-09-24T21:11:05.662Z,69.17
2018-09-24T21:13:40.443Z,68.28
2018-09-24T21:16:15.041Z,68.75
2018-09-24T21:18:49.654Z,68.53
2018-09-24T21:21:24.230Z,68.81
2018-09-24T21:23:58.869Z,68.53
2018-09-24T21:26:33.513Z,68.63
2018-09-24T21:29:08.181Z,69.39
2018-09-24T21:31:42.919Z,68.84
2018-09-24T21:34:17.634Z,68.56
2018-09-24T21:36:52.358Z,68.69
2018-09-24T21:39:26.984Z,69.14
2018-09-24T21:42:01.507Z,69.75
2018-09-24T21:44:36.184Z,70.19
2018-09-24T21:47:10.549Z,70.17
2018-09-24T21:49:45.379Z,70.28
2018-09-24T21:52:20.100Z,70.13
2018-09-24T21:54:54.857Z,70.18
2018-09-24T21:57:29.661Z,69.70
2018-09-24T22:00:04.285Z,70.59
2018-09-24T22:02:38.911Z,69.86
2018-09-24T22:05:13.855Z,69.19
2018-09-24T22:07:48.399Z,69.24
2018-09-24T22:10:22.827Z,69.11
2018-09-24T22:12:57.223Z,68.96
2018-09-24T22:15:31.721Z,68.69
2018-09-24T22:18:06.552Z,68.82
2018-09-24T22:20:41.037Z,69.48
2018-09-24T22:23:15.598Z,69.54
2018-09-24T22:25:50.528Z,70.06
2018-09-24T22:28:24.947Z,70.20
2018-09-24T22:30:59.879Z,70.99
2018-09-24T22:33:34.403Z,70.89
2018-09-24T22:36:09.105Z,70.68
2018-09-24T22:38:43.594Z,71.27
2018-09-24T22:41:18.068Z,71.26
2018-09-24T22:43:52.999Z,70.78
2018-09-24T22:46:27.505Z,70.51
2018-09-24T22:49:02.144Z,70.00
2018-09-24T22:51:36.974Z,69.80
2018-09-24T22:54:11.515Z,69.95
2018-09-24T22:56:46.073Z,69.68
2018-09-24T22:59:20.746Z,70.69
2018-09-24T23:01:55.367Z,70.24
2018-09-24T23:04:29.993Z,70.37
2018-09-24T23:07:04.518Z,69.97
2018-09-24T23:09:38.799Z,69.29
2018-09-24T23:12:13.413Z,70.13
2018-09-24T23:14:47.978Z,69.78
2018-09-24T23:17:22.501Z,69.39
2018-09-24T23:19:57.126Z,69.27
2018-09-24T23:22:31.530Z,68.92
2018-09-24T23:25:06.068Z,68.74
2018-09-24T23:27:40.556Z,69.36
2018-09-24T23:30:15.520Z,69.86
2018-09-24T23:32:50.044Z,69.62
2018-09-24T23:35:24.557Z,69.25
2018-09-24T23:37:59.137Z,69.24
2018-09-24T23:40:33.810Z,68.88
2018-09-24T23:43:08.255Z,68.76
2018-09-24T23:45:42.950Z,69.49
2018-09-24T23:48:17.683Z,69.76
2018-09-24T23:50:52.392Z,69.86
2018-09-24T23:53:26.931Z,70.32
2018-09-24T23:56:01.914Z,70.07
2018-09-24T23:58:36.462Z,69.74
